createdAt,value
2016-12-22T00:00:56.529Z,0
2016-12-22T00:01:56.220Z,0
2016-12-22T00:02:56.234Z,0
2016-12-22T00:03:56.877Z,0
2016-12-22T00:04:56.572Z,0
2016-12-22T00:05:56.290Z,0
2016-12-22T00:06:56.919Z,0
2016-12-22T00:07:56.303Z,0
2016-12-22T00:08:56.613Z,0
2016-12-22T00:09:56.943Z,0
2016-12-22T00:11:11.533Z,0
2016-12-22T00:11:56.697Z,0
2016-12-22T00:12:57.002Z,0
2016-12-22T00:13:56.705Z,0
2016-12-22T00:14:56.689Z,0
2016-12-22T00:15:57.014Z,0
2016-12-22T00:16:56.713Z,0
2016-12-22T00:17:56.419Z,0
2016-12-22T00:18:56.103Z,0
2016-12-22T00:19:56.742Z,0
2016-12-22T00:20:56.440Z,0
2016-12-22T00:21:57.091Z,0
2016-12-22T00:22:56.464Z,0
2016-12-22T00:23:56.793Z,0
2016-12-22T00:24:57.118Z,0
2016-12-22T00:25:57.450Z,0
2016-12-22T00:26:56.514Z,0
2016-12-22T00:27:56.838Z,0
2016-12-22T00:28:57.164Z,0
2016-12-22T00:29:57.177Z,0
2016-12-22T00:30:56.880Z,0
2016-12-22T00:31:56.879Z,0
2016-12-22T00:32:56.895Z,0
2016-12-22T00:33:57.235Z,0
2016-12-22T00:34:56.938Z,0
2016-12-22T00:35:56.626Z,0
2016-12-22T00:36:56.621Z,0
2016-12-22T00:37:56.635Z,0
2016-12-22T00:38:56.657Z,0
2016-12-22T00:39:57.289Z,0
2016-12-22T00:40:57.302Z,0
2016-12-22T00:41:56.693Z,0
2016-12-22T00:42:57.323Z,0
2016-12-22T00:43:57.658Z,0
2016-12-22T00:44:57.032Z,0
2016-12-22T00:45:56.727Z,0
2016-12-22T00:46:57.052Z,0
2016-12-22T00:47:57.067Z,0
2016-12-22T00:48:57.388Z,0
2016-12-22T00:49:57.721Z,0
2016-12-22T00:50:56.472Z,0
2016-12-22T00:51:57.110Z,0
2016-12-22T00:52:56.843Z,0
2016-12-22T00:53:57.449Z,0
2016-12-22T00:54:56.837Z,0
2016-12-22T00:55:57.170Z,0
2016-12-22T00:56:57.491Z,0
2016-12-22T00:57:57.499Z,0
2016-12-22T00:58:57.193Z,0
2016-12-22T00:59:57.224Z,0
2016-12-22T01:00:57.215Z,0
2016-12-22T01:01:57.862Z,0
2016-12-22T01:02:56.918Z,0
2016-12-22T01:03:56.930Z,0
2016-12-22T01:04:56.636Z,0
2016-12-22T01:05:56.961Z,0
2016-12-22T01:06:57.916Z,0
2016-12-22T01:07:57.295Z,0
2016-12-22T01:08:57.311Z,0
2016-12-22T01:09:57.003Z,0
2016-12-22T01:10:57.011Z,0
2016-12-22T01:11:57.351Z,0
2016-12-22T01:12:57.699Z,0
2016-12-22T01:13:57.044Z,0
2016-12-22T01:14:57.378Z,0
2016-12-22T01:15:57.710Z,0
2016-12-22T01:16:57.408Z,0
2016-12-22T01:17:57.110Z,0
2016-12-22T01:18:57.736Z,0
2016-12-22T01:19:57.130Z,0
2016-12-22T01:20:57.443Z,0
2016-12-22T01:21:57.142Z,0
2016-12-22T01:22:57.152Z,0
2016-12-22T01:23:58.106Z,0
2016-12-22T01:24:56.849Z,0
2016-12-22T01:25:57.818Z,0
2016-12-22T01:26:57.193Z,0
2016-12-22T01:27:57.521Z,0
2016-12-22T01:28:57.846Z,0
2016-12-22T01:29:57.906Z,0
2016-12-22T01:30:57.555Z,0
2016-12-22T01:31:57.883Z,0
2016-12-22T01:32:57.259Z,0
2016-12-22T01:33:57.287Z,0
2016-12-22T01:34:57.928Z,0
2016-12-22T01:35:56.978Z,0
2016-12-22T01:36:57.625Z,0
2016-12-22T01:37:57.635Z,0
2016-12-22T01:38:57.959Z,0
2016-12-22T01:39:57.339Z,0
2016-12-22T01:40:57.383Z,0
2016-12-22T01:41:57.366Z,0
2016-12-22T01:42:58.007Z,0
2016-12-22T01:43:57.699Z,0
2016-12-22T01:44:57.412Z,0
2016-12-22T01:45:57.745Z,0
2016-12-22T01:46:58.049Z,0
2016-12-22T01:47:57.744Z,0
2016-12-22T01:48:58.107Z,0
2016-12-22T01:49:57.453Z,0
2016-12-22T01:50:58.092Z,0
2016-12-22T01:51:58.430Z,0
2016-12-22T01:52:57.805Z,0
2016-12-22T01:53:57.811Z,0
2016-12-22T01:54:58.468Z,0
2016-12-22T01:55:58.145Z,0
2016-12-22T01:56:57.532Z,0
2016-12-22T01:57:58.171Z,0
2016-12-22T01:58:57.878Z,0
2016-12-22T01:59:57.268Z,0
2016-12-22T02:00:57.581Z,0
2016-12-22T02:01:57.906Z,0
2016-12-22T02:02:57.295Z,0
2016-12-22T02:03:58.243Z,0
2016-12-22T02:04:58.251Z,0
2016-12-22T02:05:58.271Z,0
2016-12-22T02:06:57.979Z,0
2016-12-22T02:07:57.998Z,0
2016-12-22T02:08:57.668Z,0
2016-12-22T02:09:57.992Z,0
2016-12-22T02:10:58.006Z,0
2016-12-22T02:11:58.667Z,0
2016-12-22T02:12:58.342Z,0
2016-12-22T02:13:58.675Z,0
2016-12-22T02:14:57.421Z,0
2016-12-22T02:15:58.377Z,0
2016-12-22T02:16:58.069Z,0
2016-12-22T02:17:57.780Z,0
2016-12-22T02:18:58.413Z,0
2016-12-22T02:19:58.103Z,0
2016-12-22T02:20:58.435Z,0
2016-12-22T02:21:58.140Z,0
2016-12-22T02:22:58.459Z,0
2016-12-22T02:23:57.837Z,0
2016-12-22T02:24:58.155Z,0
2016-12-22T02:25:57.866Z,0
2016-12-22T02:26:58.815Z,0
2016-12-22T02:27:58.547Z,0
2016-12-22T02:28:58.224Z,0
2016-12-22T02:29:58.217Z,0
2016-12-22T02:30:58.558Z,0
2016-12-22T02:31:58.248Z,0
2016-12-22T02:32:58.253Z,0
2016-12-22T02:33:58.576Z,0
2016-12-22T02:34:57.648Z,0
2016-12-22T02:35:58.600Z,0
2016-12-22T02:36:58.608Z,0
2016-12-22T02:37:58.311Z,0
2016-12-22T02:38:57.686Z,0
2016-12-22T02:39:58.332Z,0
2016-12-22T02:40:58.659Z,0
2016-12-22T02:41:58.360Z,0
2016-12-22T02:42:58.677Z,0
2016-12-22T02:43:58.071Z,0
2016-12-22T02:44:58.390Z,0
2016-12-22T02:45:58.731Z,0
2016-12-22T02:46:58.096Z,0
2016-12-22T02:47:58.106Z,0
2016-12-22T02:48:58.112Z,0
2016-12-22T02:49:58.448Z,0
2016-12-22T02:50:58.140Z,0
2016-12-22T02:51:58.472Z,0
2016-12-22T02:52:58.846Z,0
2016-12-22T02:53:58.490Z,0
2016-12-22T02:54:58.820Z,0
2016-12-22T02:55:58.502Z,0
2016-12-22T02:56:58.533Z,0
2016-12-22T02:57:58.849Z,0
2016-12-22T02:58:58.552Z,0
2016-12-22T02:59:58.248Z,0
2016-12-22T03:00:58.253Z,0
2016-12-22T03:01:58.584Z,0
2016-12-22T03:02:58.607Z,0
2016-12-22T03:03:58.321Z,0
2016-12-22T03:04:57.993Z,0
2016-12-22T03:05:58.313Z,0
2016-12-22T03:06:58.635Z,0
2016-12-22T03:07:59.284Z,0
2016-12-22T03:08:58.341Z,0
2016-12-22T03:09:58.352Z,0
2016-12-22T03:10:58.994Z,0
2016-12-22T03:11:58.690Z,0
2016-12-22T03:12:58.707Z,0
2016-12-22T03:13:58.714Z,0
2016-12-22T03:14:58.725Z,0
2016-12-22T03:15:59.082Z,0
2016-12-22T03:16:59.068Z,0
2016-12-22T03:17:58.437Z,0
2016-12-22T03:18:58.769Z,0
2016-12-22T03:19:58.466Z,0
2016-12-22T03:20:58.478Z,0
2016-12-22T03:21:58.489Z,0
2016-12-22T03:22:58.494Z,0
2016-12-22T03:23:58.195Z,0
2016-12-22T03:24:58.520Z,0
2016-12-22T03:25:59.476Z,0
2016-12-22T03:26:58.855Z,0
2016-12-22T03:27:58.606Z,0
2016-12-22T03:28:58.872Z,0
2016-12-22T03:29:58.261Z,0
2016-12-22T03:30:58.900Z,0
2016-12-22T03:31:58.914Z,0
2016-12-22T03:32:58.607Z,0
2016-12-22T03:33:59.261Z,0
2016-12-22T03:34:58.441Z,0
2016-12-22T03:35:58.639Z,0
2016-12-22T03:36:59.289Z,0
2016-12-22T03:37:58.665Z,0
2016-12-22T03:38:58.992Z,0
2016-12-22T03:39:58.998Z,0
2016-12-22T03:40:59.008Z,0
2016-12-22T03:41:58.705Z,0
2016-12-22T03:42:59.671Z,0
2016-12-22T03:43:59.044Z,0
2016-12-22T03:44:58.424Z,0
2016-12-22T03:45:59.717Z,0
2016-12-22T03:46:59.097Z,0
2016-12-22T03:47:59.087Z,0
2016-12-22T03:48:59.429Z,0
2016-12-22T03:49:58.796Z,0
2016-12-22T03:50:59.435Z,0
2016-12-22T03:51:59.461Z,0
2016-12-22T03:52:58.516Z,0
2016-12-22T03:53:59.155Z,0
2016-12-22T03:54:58.855Z,0
2016-12-22T03:55:58.860Z,0
2016-12-22T03:56:59.504Z,0
2016-12-22T03:57:58.565Z,0
2016-12-22T03:58:59.208Z,0
2016-12-22T03:59:58.916Z,0
2016-12-22T04:00:59.264Z,0
2016-12-22T04:01:58.927Z,0
2016-12-22T04:02:59.258Z,0
2016-12-22T04:03:58.970Z,0
2016-12-22T04:04:59.279Z,0
2016-12-22T04:05:59.285Z,0
2016-12-22T04:06:58.988Z,0
2016-12-22T04:07:58.679Z,0
2016-12-22T04:08:59.640Z,0
2016-12-22T04:09:59.015Z,0
2016-12-22T04:10:59.038Z,0
2016-12-22T04:11:59.374Z,0
2016-12-22T04:12:59.364Z,0
2016-12-22T04:13:59.383Z,0
2016-12-22T04:14:59.395Z,0
2016-12-22T04:15:59.722Z,0
2016-12-22T04:16:59.093Z,0
2016-12-22T04:17:59.740Z,0
2016-12-22T04:18:58.810Z,0
2016-12-22T04:19:59.145Z,0
2016-12-22T04:20:59.787Z,0
2016-12-22T04:22:00.095Z,0
2016-12-22T04:22:59.178Z,0
2016-12-22T04:23:59.825Z,0
2016-12-22T04:24:59.500Z,0
2016-12-22T04:25:59.513Z,0
2016-12-22T04:26:59.525Z,0
2016-12-22T04:27:59.537Z,0
2016-12-22T04:28:59.546Z,0
2016-12-22T04:29:59.243Z,0
2016-12-22T04:30:59.246Z,0
2016-12-22T04:31:59.575Z,0
2016-12-22T04:32:59.274Z,0
2016-12-22T04:33:59.596Z,0
2016-12-22T04:34:59.952Z,0
2016-12-22T04:35:59.618Z,0
2016-12-22T04:36:59.313Z,0
2016-12-22T04:37:59.963Z,0
2016-12-22T04:38:59.653Z,0
2016-12-22T04:39:59.979Z,0
2016-12-22T04:40:59.997Z,0
2016-12-22T04:42:00.333Z,0
2016-12-22T04:43:00.331Z,0
2016-12-22T04:43:59.712Z,0
2016-12-22T04:45:00.038Z,0
2016-12-22T04:46:00.046Z,0
2016-12-22T04:46:59.425Z,0
2016-12-22T04:47:59.751Z,0
2016-12-22T04:48:59.446Z,0
2016-12-22T04:50:00.098Z,0
2016-12-22T04:50:59.155Z,0
2016-12-22T04:51:59.479Z,0
2016-12-22T04:53:00.463Z,0
2016-12-22T04:54:00.129Z,0
2016-12-22T04:55:00.172Z,0
2016-12-22T04:55:59.839Z,0
2016-12-22T04:56:59.850Z,0
2016-12-22T04:57:59.225Z,0
2016-12-22T04:59:00.190Z,0
2016-12-22T04:59:59.566Z,0
2016-12-22T05:01:00.209Z,0
2016-12-22T05:01:59.586Z,0
2016-12-22T05:02:59.916Z,0
2016-12-22T05:03:59.608Z,0
2016-12-22T05:04:59.938Z,0
2016-12-22T05:05:59.326Z,0
2016-12-22T05:06:59.637Z,0
2016-12-22T05:08:00.284Z,0
2016-12-22T05:08:59.675Z,0
2016-12-22T05:09:59.698Z,0
2016-12-22T05:11:00.386Z,0
2016-12-22T05:12:00.016Z,0
2016-12-22T05:13:00.364Z,0
2016-12-22T05:14:00.364Z,0
2016-12-22T05:15:00.408Z,0
2016-12-22T05:16:00.055Z,0
2016-12-22T05:17:00.389Z,0
2016-12-22T05:18:00.421Z,0
2016-12-22T05:19:00.099Z,0
2016-12-22T05:20:00.094Z,0
2016-12-22T05:20:59.479Z,0
2016-12-22T05:21:59.495Z,0
2016-12-22T05:23:00.445Z,0
2016-12-22T05:24:00.154Z,0
2016-12-22T05:24:59.840Z,0
2016-12-22T05:26:00.481Z,0
2016-12-22T05:27:00.174Z,0
2016-12-22T05:27:59.566Z,0
2016-12-22T05:29:00.511Z,0
2016-12-22T05:30:00.211Z,0
2016-12-22T05:30:59.908Z,0
2016-12-22T05:31:59.918Z,0
2016-12-22T05:33:00.272Z,0
2016-12-22T05:34:00.249Z,0
2016-12-22T05:35:00.577Z,0
2016-12-22T05:36:00.902Z,0
2016-12-22T05:37:00.593Z,0
2016-12-22T05:37:59.972Z,0
2016-12-22T05:39:00.304Z,0
2016-12-22T05:40:00.006Z,0
2016-12-22T05:40:59.725Z,0
2016-12-22T05:42:00.028Z,0
2016-12-22T05:43:00.353Z,0
2016-12-22T05:44:00.668Z,0
2016-12-22T05:44:59.740Z,0
2016-12-22T05:46:00.059Z,0
2016-12-22T05:47:00.387Z,0
2016-12-22T05:48:00.713Z,0
2016-12-22T05:49:00.410Z,0
2016-12-22T05:50:00.109Z,0
2016-12-22T05:51:00.431Z,0
2016-12-22T05:52:00.148Z,0
2016-12-22T05:52:59.824Z,0
2016-12-22T05:54:00.460Z,0
2016-12-22T05:55:00.786Z,0
2016-12-22T05:56:00.170Z,0
2016-12-22T05:57:00.808Z,0
2016-12-22T05:58:00.503Z,0
2016-12-22T05:59:00.214Z,0
2016-12-22T06:00:00.540Z,0
2016-12-22T06:01:00.846Z,0
2016-12-22T06:02:00.862Z,0
2016-12-22T06:03:00.238Z,0
2016-12-22T06:04:00.887Z,0
2016-12-22T06:05:00.891Z,0
2016-12-22T06:06:00.591Z,0
2016-12-22T06:07:00.608Z,0
2016-12-22T06:08:00.307Z,0
2016-12-22T06:09:00.939Z,0
2016-12-22T06:10:00.965Z,0
2016-12-22T06:11:00.632Z,0
2016-12-22T06:12:00.366Z,0
2016-12-22T06:13:00.659Z,0
2016-12-22T06:14:00.670Z,0
2016-12-22T06:15:00.694Z,0
2016-12-22T06:16:00.374Z,0
2016-12-22T06:17:00.382Z,0
2016-12-22T06:18:00.115Z,0
2016-12-22T06:19:00.422Z,0
2016-12-22T06:20:00.739Z,0
2016-12-22T06:21:00.787Z,0
2016-12-22T06:22:00.753Z,0
2016-12-22T06:23:01.082Z,0
2016-12-22T06:24:00.778Z,0
2016-12-22T06:25:00.789Z,0
2016-12-22T06:26:00.791Z,0
2016-12-22T06:27:00.174Z,0
2016-12-22T06:28:00.505Z,0
2016-12-22T06:29:00.512Z,0
2016-12-22T06:30:01.157Z,0
2016-12-22T06:31:00.849Z,0
2016-12-22T06:32:01.179Z,0
2016-12-22T06:33:00.870Z,0
2016-12-22T06:34:00.887Z,0
2016-12-22T06:35:01.213Z,0
2016-12-22T06:36:01.235Z,0
2016-12-22T06:37:00.596Z,0
2016-12-22T06:38:01.235Z,0
2016-12-22T06:39:00.615Z,0
2016-12-22T06:40:00.948Z,0
2016-12-22T06:41:00.642Z,0
2016-12-22T06:42:00.964Z,0
2016-12-22T06:43:00.343Z,0
2016-12-22T06:44:00.352Z,0
2016-12-22T06:45:01.000Z,0
2016-12-22T06:46:00.379Z,0
2016-12-22T06:47:01.041Z,0
2016-12-22T06:48:01.675Z,0
2016-12-22T06:49:00.412Z,0
2016-12-22T06:50:01.378Z,0
2016-12-22T06:51:00.747Z,0
2016-12-22T06:52:01.069Z,0
2016-12-22T06:53:01.436Z,0
2016-12-22T06:54:01.093Z,0
2016-12-22T06:55:00.790Z,0
2016-12-22T06:56:01.441Z,0
2016-12-22T06:57:01.134Z,0
2016-12-22T06:58:01.447Z,0
2016-12-22T06:59:01.469Z,0
2016-12-22T07:00:01.162Z,0
2016-12-22T07:01:01.169Z,0
2016-12-22T07:02:00.546Z,0
2016-12-22T07:03:01.192Z,0
2016-12-22T07:04:01.511Z,0
2016-12-22T07:05:00.579Z,0
2016-12-22T07:06:01.864Z,0
2016-12-22T07:07:01.231Z,0
2016-12-22T07:08:01.268Z,0
2016-12-22T07:09:01.258Z,0
2016-12-22T07:10:00.962Z,0
2016-12-22T07:11:00.972Z,0
2016-12-22T07:12:01.300Z,0
2016-12-22T07:13:01.298Z,0
2016-12-22T07:14:01.318Z,0
2016-12-22T07:15:01.002Z,0
2016-12-22T07:16:01.329Z,0
2016-12-22T07:17:01.341Z,0
2016-12-22T07:18:01.688Z,0
2016-12-22T07:19:01.393Z,0
2016-12-22T07:20:01.375Z,0
2016-12-22T07:21:01.063Z,0
2016-12-22T07:22:01.708Z,0
2016-12-22T07:23:01.411Z,0
2016-12-22T07:24:01.096Z,0
2016-12-22T07:25:01.422Z,0
2016-12-22T07:26:01.460Z,0
2016-12-22T07:27:01.450Z,0
2016-12-22T07:28:01.488Z,0
2016-12-22T07:29:01.465Z,0
2016-12-22T07:30:01.789Z,0
2016-12-22T07:31:01.175Z,0
2016-12-22T07:32:01.185Z,0
2016-12-22T07:33:01.195Z,0
2016-12-22T07:34:01.209Z,0
2016-12-22T07:35:01.219Z,0
2016-12-22T07:36:00.920Z,0
2016-12-22T07:37:01.875Z,0
2016-12-22T07:38:01.879Z,0
2016-12-22T07:39:01.260Z,0
2016-12-22T07:40:01.272Z,0
2016-12-22T07:41:01.278Z,0
2016-12-22T07:42:01.290Z,0
2016-12-22T07:43:01.941Z,0
2016-12-22T07:44:01.329Z,0
2016-12-22T07:45:01.321Z,0
2016-12-22T07:46:01.441Z,0
2016-12-22T07:47:01.660Z,5
2016-12-22T07:48:01.366Z,5
2016-12-22T07:49:01.677Z,5
2016-12-22T07:50:01.692Z,5
2016-12-22T07:51:02.335Z,5
2016-12-22T07:52:01.716Z,5
2016-12-22T07:53:01.112Z,5
2016-12-22T07:54:02.070Z,5
2016-12-22T07:55:01.953Z,5
2016-12-22T07:56:02.079Z,5
2016-12-22T07:57:01.796Z,5
2016-12-22T07:58:01.464Z,5
2016-12-22T07:59:01.791Z,0
2016-12-22T08:00:02.437Z,5
2016-12-22T08:01:01.900Z,5
2016-12-22T08:02:01.511Z,5
2016-12-22T08:03:02.150Z,5
2016-12-22T08:04:01.532Z,5
2016-12-22T08:05:01.851Z,5
2016-12-22T08:06:01.559Z,5
2016-12-22T08:07:01.636Z,5
2016-12-22T08:08:02.196Z,5
2016-12-22T08:09:02.214Z,5
2016-12-22T08:10:01.624Z,5
2016-12-22T08:11:01.601Z,5
2016-12-22T08:12:01.936Z,5
2016-12-22T08:13:02.254Z,5
2016-12-22T08:14:02.284Z,5
2016-12-22T08:15:02.303Z,5
2016-12-22T08:16:01.971Z,5
2016-12-22T08:17:02.299Z,5
2016-12-22T08:18:02.311Z,10
2016-12-22T08:19:02.001Z,10
2016-12-22T08:20:01.702Z,10
2016-12-22T08:21:02.340Z,10
2016-12-22T08:22:02.367Z,10
2016-12-22T08:23:02.046Z,10
2016-12-22T08:24:02.062Z,10
2016-12-22T08:25:01.746Z,15
2016-12-22T08:26:01.450Z,15
2016-12-22T08:27:02.092Z,10
2016-12-22T08:28:02.101Z,10
2016-12-22T08:29:01.804Z,10
2016-12-22T08:30:02.443Z,10
2016-12-22T08:31:01.930Z,10
2016-12-22T08:32:02.144Z,15
2016-12-22T08:33:02.153Z,15
2016-12-22T08:34:02.518Z,15
2016-12-22T08:35:02.491Z,15
2016-12-22T08:36:02.593Z,15
2016-12-22T08:37:02.200Z,15
2016-12-22T08:38:02.213Z,15
2016-12-22T08:39:02.222Z,15
2016-12-22T08:40:02.264Z,20
2016-12-22T08:41:01.927Z,20
2016-12-22T08:42:02.598Z,20
2016-12-22T08:43:02.619Z,20
2016-12-22T08:44:02.593Z,20
2016-12-22T08:45:02.610Z,25
2016-12-22T08:46:02.300Z,25
2016-12-22T08:47:02.626Z,25
2016-12-22T08:48:02.320Z,25
2016-12-22T08:49:02.025Z,25
2016-12-22T08:50:02.685Z,25
2016-12-22T08:51:01.730Z,25
2016-12-22T08:52:02.731Z,25
2016-12-22T08:53:02.059Z,20
2016-12-22T08:54:03.019Z,25
2016-12-22T08:55:02.731Z,30
2016-12-22T08:56:02.416Z,30
2016-12-22T08:57:02.115Z,30
2016-12-22T08:58:02.749Z,30
2016-12-22T08:59:02.130Z,30
2016-12-22T09:00:02.149Z,30
2016-12-22T09:01:02.784Z,30
2016-12-22T09:02:01.845Z,30
2016-12-22T09:03:02.492Z,30
2016-12-22T09:04:02.196Z,30
2016-12-22T09:05:02.521Z,30
2016-12-22T09:06:02.525Z,30
2016-12-22T09:07:02.222Z,25
2016-12-22T09:08:02.249Z,25
2016-12-22T09:09:02.259Z,25
2016-12-22T09:10:02.600Z,25
2016-12-22T09:11:02.270Z,25
2016-12-22T09:12:02.915Z,30
2016-12-22T09:13:02.923Z,30
2016-12-22T09:14:02.630Z,30
2016-12-22T09:15:02.637Z,30
2016-12-22T09:16:02.956Z,30
2016-12-22T09:17:02.651Z,40
2016-12-22T09:22:19.776Z,155
2016-12-22T09:22:29.175Z,165
2016-12-22T09:23:28.851Z,110
2016-12-22T09:24:29.198Z,145
2016-12-22T09:25:28.875Z,185
2016-12-22T09:26:28.887Z,145
2016-12-22T09:27:28.904Z,80
2016-12-22T09:28:29.227Z,75
2016-12-22T09:29:28.615Z,120
2016-12-22T09:30:29.574Z,205
2016-12-22T09:31:29.264Z,235
2016-12-22T09:32:29.586Z,230
2016-12-22T09:33:29.295Z,210
2016-12-22T09:34:29.304Z,150
2016-12-22T09:35:29.330Z,105
2016-12-22T09:36:29.330Z,90
2016-12-22T09:37:28.721Z,150
2016-12-22T09:38:29.356Z,230
2016-12-22T09:39:28.736Z,195
2016-12-22T09:40:29.702Z,145
2016-12-22T09:41:29.078Z,140
2016-12-22T09:42:29.738Z,145
2016-12-22T09:43:29.114Z,140
2016-12-22T09:44:29.120Z,125
2016-12-22T09:45:29.453Z,120
2016-12-22T09:46:29.464Z,130
2016-12-22T09:47:29.185Z,150
2016-12-22T09:48:29.498Z,155
2016-12-22T09:49:29.509Z,170
2016-12-22T09:50:29.413Z,185
2016-12-22T09:51:29.548Z,200
2016-12-22T09:52:29.554Z,215
2016-12-22T09:53:29.566Z,215
2016-12-22T09:54:29.266Z,205
2016-12-22T09:55:29.914Z,185
2016-12-22T09:56:29.936Z,140
2016-12-22T09:57:29.960Z,105
2016-12-22T09:58:29.961Z,100
2016-12-22T09:59:29.657Z,90
2016-12-22T10:00:29.996Z,85
2016-12-22T10:01:29.373Z,80
2016-12-22T10:02:30.021Z,80
2016-12-22T10:03:30.360Z,85
2016-12-22T10:04:30.063Z,95
2016-12-22T10:05:30.376Z,100
2016-12-22T10:06:29.447Z,90
2016-12-22T10:07:30.094Z,75
2016-12-22T10:08:30.120Z,80
2016-12-22T10:09:29.497Z,70
2016-12-22T10:10:29.825Z,70
2016-12-22T10:11:29.846Z,80
2016-12-22T10:12:29.537Z,100
2016-12-22T10:13:30.184Z,130
2016-12-22T10:14:30.201Z,135
2016-12-22T10:15:29.901Z,120
2016-12-22T10:16:29.921Z,120
2016-12-22T10:17:29.622Z,125
2016-12-22T10:18:29.642Z,125
2016-12-22T10:19:30.610Z,115
2016-12-22T10:20:30.296Z,110
2016-12-22T10:21:30.002Z,110
2016-12-22T10:22:30.033Z,110
2016-12-22T10:23:30.363Z,110
2016-12-22T10:24:30.675Z,115
2016-12-22T10:25:29.767Z,115
2016-12-22T10:26:30.094Z,115
2016-12-22T10:27:29.792Z,120
2016-12-22T10:28:30.742Z,115
2016-12-22T10:29:30.127Z,115
2016-12-22T10:30:30.472Z,115
2016-12-22T10:31:29.527Z,110
2016-12-22T10:32:29.860Z,115
2016-12-22T10:33:30.527Z,135
2016-12-22T10:34:30.206Z,135
2016-12-22T10:35:30.232Z,130
2016-12-22T10:36:30.238Z,130
2016-12-22T10:37:30.596Z,135
2016-12-22T10:38:30.278Z,155
2016-12-22T10:39:29.975Z,160
2016-12-22T10:40:30.629Z,150
2016-12-22T10:41:30.653Z,140
2016-12-22T10:42:30.020Z,130
2016-12-22T10:43:30.090Z,120
2016-12-22T10:44:30.691Z,120
2016-12-22T10:45:30.728Z,145
2016-12-22T10:46:30.720Z,150
2016-12-22T10:47:30.419Z,140
2016-12-22T10:48:29.820Z,120
2016-12-22T10:49:31.086Z,100
2016-12-22T10:50:30.465Z,105
2016-12-22T10:51:29.859Z,115
2016-12-22T10:52:30.501Z,120
2016-12-22T10:53:30.517Z,110
2016-12-22T10:54:30.534Z,105
2016-12-22T10:55:30.643Z,85
2016-12-22T10:56:30.567Z,70
2016-12-22T10:57:30.898Z,70
2016-12-22T10:58:30.600Z,70
2016-12-22T10:59:30.947Z,75
2016-12-22T11:00:30.972Z,75
2016-12-22T11:01:30.651Z,70
2016-12-22T11:02:31.303Z,70
2016-12-22T11:03:31.315Z,65
2016-12-22T11:04:30.377Z,65
2016-12-22T11:05:31.545Z,65
2016-12-22T11:06:30.727Z,65
2016-12-22T11:07:31.058Z,65
2016-12-22T11:08:31.080Z,60
2016-12-22T11:09:30.774Z,65
2016-12-22T11:10:30.795Z,65
2016-12-22T11:11:30.809Z,65
2016-12-22T11:12:30.826Z,65
2016-12-22T11:13:30.934Z,65
2016-12-22T11:14:30.863Z,60
2016-12-22T11:15:30.560Z,65
2016-12-22T11:16:30.575Z,60
2016-12-22T11:17:30.913Z,55
2016-12-22T11:18:30.926Z,50
2016-12-22T11:19:30.625Z,50
2016-12-22T11:20:31.275Z,45
2016-12-22T11:21:30.658Z,45
2016-12-22T11:22:31.626Z,45
2016-12-22T11:23:31.640Z,50
2016-12-22T11:24:31.036Z,55
2016-12-22T11:25:31.040Z,55
2016-12-22T11:26:31.372Z,55
2016-12-22T11:27:31.074Z,55
2016-12-22T11:28:31.092Z,55
2016-12-22T11:29:30.791Z,55
2016-12-22T11:30:31.123Z,60
2016-12-22T11:31:31.535Z,55
2016-12-22T11:32:31.474Z,60
2016-12-22T11:33:31.512Z,60
2016-12-22T11:34:31.188Z,55
2016-12-22T11:35:31.523Z,60
2016-12-22T11:36:31.277Z,60
2016-12-22T11:37:31.240Z,60
2016-12-22T11:38:31.576Z,60
2016-12-22T11:39:30.975Z,60
2016-12-22T11:40:31.331Z,65
2016-12-22T11:41:31.339Z,60
2016-12-22T11:42:31.645Z,60
2016-12-22T11:43:31.341Z,60
2016-12-22T11:44:31.355Z,60
2016-12-22T11:45:32.003Z,55
2016-12-22T11:46:31.100Z,60
2016-12-22T11:47:31.112Z,60
2016-12-22T11:48:31.130Z,55
2016-12-22T11:49:31.122Z,55
2016-12-22T11:50:31.776Z,55
2016-12-22T11:51:31.152Z,60
2016-12-22T11:52:31.493Z,55
2016-12-22T11:53:31.519Z,55
2016-12-22T11:54:30.893Z,60
2016-12-22T11:55:31.857Z,55
2016-12-22T11:56:31.565Z,60
2016-12-22T11:57:31.254Z,60
2016-12-22T11:58:31.594Z,55
2016-12-22T11:59:30.978Z,55
2016-12-22T12:00:31.630Z,60
2016-12-22T12:01:31.325Z,60
2016-12-22T12:02:31.342Z,60
2016-12-22T12:03:31.690Z,60
2016-12-22T12:04:32.033Z,60
2016-12-22T12:05:31.400Z,60
2016-12-22T12:06:31.097Z,60
2016-12-22T12:07:31.474Z,60
2016-12-22T12:08:32.078Z,60
2016-12-22T12:09:31.461Z,60
2016-12-22T12:10:31.791Z,60
2016-12-22T12:11:31.814Z,50
2016-12-22T12:12:31.829Z,50
2016-12-22T12:13:32.049Z,55
2016-12-22T12:14:31.233Z,55
2016-12-22T12:15:31.879Z,55
2016-12-22T12:16:31.898Z,55
2016-12-22T12:17:32.270Z,55
2016-12-22T12:18:31.936Z,50
2016-12-22T12:19:31.959Z,50
2016-12-22T12:20:31.655Z,55
2016-12-22T12:21:31.673Z,55
2016-12-22T12:22:31.695Z,55
2016-12-22T12:23:32.341Z,55
2016-12-22T12:24:32.084Z,55
2016-12-22T12:25:31.762Z,55
2016-12-22T12:26:31.476Z,55
2016-12-22T12:27:31.786Z,55
2016-12-22T12:28:31.791Z,55
2016-12-22T12:29:32.438Z,60
2016-12-22T12:30:32.467Z,55
2016-12-22T12:31:32.482Z,55
2016-12-22T12:32:31.868Z,55
2016-12-22T12:33:32.515Z,55
2016-12-22T12:34:32.214Z,55
2016-12-22T12:35:32.564Z,55
2016-12-22T12:36:32.253Z,55
2016-12-22T12:37:32.267Z,55
2016-12-22T12:38:32.928Z,55
2016-12-22T12:39:32.931Z,55
2016-12-22T12:40:32.631Z,55
2016-12-22T12:41:33.018Z,55
2016-12-22T12:42:32.678Z,55
2016-12-22T12:43:32.375Z,55
2016-12-22T12:44:32.078Z,55
2016-12-22T12:45:32.724Z,55
2016-12-22T12:46:32.423Z,55
2016-12-22T12:47:32.448Z,55
2016-12-22T12:48:32.480Z,55
2016-12-22T12:49:32.482Z,55
2016-12-22T12:50:32.496Z,55
2016-12-22T12:51:32.840Z,55
2016-12-22T12:52:32.539Z,55
2016-12-22T12:53:31.920Z,55
2016-12-22T12:54:32.902Z,55
2016-12-22T12:55:32.606Z,55
2016-12-22T12:56:32.603Z,55
2016-12-22T12:57:31.995Z,50
2016-12-22T12:58:32.638Z,55
2016-12-22T12:59:32.344Z,50
2016-12-22T13:00:32.676Z,50
2016-12-22T13:01:32.381Z,50
2016-12-22T13:02:32.391Z,50
2016-12-22T13:03:32.417Z,50
2016-12-22T13:04:33.387Z,50
2016-12-22T13:05:33.101Z,50
2016-12-22T13:06:32.801Z,50
2016-12-22T13:07:32.505Z,50
2016-12-22T13:08:32.819Z,50
2016-12-22T13:09:32.532Z,50
2016-12-22T13:10:32.858Z,50
2016-12-22T13:11:32.876Z,50
2016-12-22T13:12:32.912Z,50
2016-12-22T13:13:32.608Z,45
2016-12-22T13:14:32.926Z,45
2016-12-22T13:15:33.276Z,45
2016-12-22T13:16:32.347Z,45
2016-12-22T13:17:32.671Z,45
2016-12-22T13:18:33.637Z,45
2016-12-22T13:19:33.338Z,45
2016-12-22T13:20:32.723Z,45
2016-12-22T13:21:32.766Z,45
2016-12-22T13:22:33.394Z,45
2016-12-22T13:23:32.781Z,40
2016-12-22T13:24:33.152Z,35
2016-12-22T13:25:32.837Z,35
2016-12-22T13:26:32.551Z,35
2016-12-22T13:27:33.169Z,35
2016-12-22T13:28:37.277Z,40
2016-12-22T13:29:36.663Z,40
2016-12-22T13:30:36.442Z,40
2016-12-22T13:31:36.450Z,35
2016-12-22T13:32:35.982Z,35
2016-12-22T13:33:34.484Z,35
2016-12-22T13:34:33.558Z,35
2016-12-22T13:35:33.024Z,35
2016-12-22T13:36:33.023Z,40
2016-12-22T13:37:33.357Z,40
2016-12-22T13:38:33.377Z,40
2016-12-22T13:39:33.393Z,40
2016-12-22T13:40:33.421Z,40
2016-12-22T13:41:33.431Z,40
2016-12-22T13:42:33.136Z,40
2016-12-22T13:43:33.488Z,35
2016-12-22T13:44:33.193Z,35
2016-12-22T13:45:33.827Z,35
2016-12-22T13:46:33.547Z,35
2016-12-22T13:47:33.540Z,35
2016-12-22T13:48:34.477Z,35
2016-12-22T13:49:33.317Z,35
2016-12-22T13:50:33.285Z,35
2016-12-22T13:51:33.300Z,35
2016-12-22T13:52:33.633Z,35
2016-12-22T13:53:33.994Z,35
2016-12-22T13:54:34.000Z,30
2016-12-22T13:55:33.694Z,35
2016-12-22T13:56:34.034Z,35
2016-12-22T13:57:33.759Z,30
2016-12-22T13:58:34.062Z,30
2016-12-22T13:59:33.770Z,30
2016-12-22T14:00:33.787Z,30
2016-12-22T14:01:34.187Z,30
2016-12-22T14:02:33.841Z,30
2016-12-22T14:03:33.848Z,30
2016-12-22T14:04:33.861Z,30
2016-12-22T14:05:33.562Z,30
2016-12-22T14:06:33.905Z,30
2016-12-22T14:07:34.232Z,30
2016-12-22T14:08:34.247Z,30
2016-12-22T14:09:33.635Z,25
2016-12-22T14:10:33.971Z,25
2016-12-22T14:11:33.991Z,20
2016-12-22T14:12:34.009Z,20
2016-12-22T14:13:34.027Z,25
2016-12-22T14:14:34.045Z,30
2016-12-22T14:15:34.383Z,30
2016-12-22T14:16:34.083Z,25
2016-12-22T14:17:34.115Z,25
2016-12-22T14:18:34.437Z,25
2016-12-22T14:19:33.831Z,25
2016-12-22T14:20:34.156Z,20
2016-12-22T14:21:34.490Z,20
2016-12-22T14:22:33.883Z,15
2016-12-22T14:23:34.660Z,10
2016-12-22T14:24:34.228Z,10
2016-12-22T14:25:34.251Z,10
2016-12-22T14:26:34.268Z,10
2016-12-22T14:27:34.287Z,10
2016-12-22T14:28:34.619Z,10
2016-12-22T14:29:34.009Z,5
2016-12-22T14:30:34.655Z,5
2016-12-22T14:31:34.682Z,5
2016-12-22T14:32:35.011Z,5
2016-12-22T14:33:34.398Z,5
2016-12-22T14:34:34.416Z,5